Time;durP1;ratioP1;P1;durP2;ratioP2;P2;SDS_P1;SDS_P2;PMS_P1;PMS_P2;Temp;Humidity;BMP_temperature;BMP_pressure;BME280_temperature;BME280_humidity;BME280_pressure;Samples;Min_cycle;Max_cycle;Signal;HPM_P1;HPM_P2
2021/09/10 00:01:45;;;;;;;25.17;18.40;;;;;;;;;;4348498;33;20155;-85
2021/09/10 00:04:10;;;;;;;23.70;18.20;;;;;;;;;;4334230;33;20156;-85
2021/09/10 00:06:42;;;;;;;23.05;18.00;;;;;;;;;;4334169;33;20222;-85
2021/09/10 00:09:12;;;;;;;23.23;17.25;;;;;;;;;;4347833;33;20211;-85
2021/09/10 00:11:37;;;;;;;23.95;18.35;;;;;;;;;;4349904;33;20131;-84
2021/09/10 00:14:09;;;;;;;27.65;19.02;;;;;;;;;;4351289;33;20558;-85
2021/09/10 00:16:43;;;;;;;21.12;16.35;;;;;;;;;;4348325;33;20158;-85
2021/09/10 00:19:11;;;;;;;23.65;18.15;;;;;;;;;;4334027;33;20249;-85
2021/09/10 00:21:40;;;;;;;21.25;17.58;;;;;;;;;;4347875;33;20127;-85
2021/09/10 00:24:08;;;;;;;19.42;14.73;;;;;;;;;;4347427;33;20214;-85
2021/09/10 00:26:45;;;;;;;20.48;15.43;;;;;;;;;;4347689;33;20136;-85
2021/09/10 00:29:19;;;;;;;22.73;17.23;;;;;;;;;;4334645;33;20151;-85
2021/09/10 00:31:48;;;;;;;22.55;16.65;;;;;;;;;;4343003;33;20200;-85
2021/09/10 00:34:20;;;;;;;27.55;16.90;;;;;;;;;;4356729;33;20132;-85
2021/09/10 00:36:46;;;;;;;24.02;17.70;;;;;;;;;;4343792;33;20174;-85
2021/09/10 00:39:22;;;;;;;21.83;16.48;;;;;;;;;;4357117;33;20572;-84
2021/09/10 00:41:57;;;;;;;25.92;19.12;;;;;;;;;;4336678;33;20155;-85
2021/09/10 00:44:37;;;;;;;24.83;18.90;;;;;;;;;;4347123;33;20537;-84
2021/09/10 00:47:05;;;;;;;28.90;21.15;;;;;;;;;;4334112;33;20147;-84
2021/09/10 00:49:30;;;;;;;27.42;19.80;;;;;;;;;;4346831;33;20185;-84
2021/09/10 00:52:06;;;;;;;28.80;20.67;;;;;;;;;;4333531;33;20156;-84
2021/09/10 00:54:34;;;;;;;30.55;23.12;;;;;;;;;;4333867;33;20151;-84
2021/09/10 00:57:05;;;;;;;27.75;21.70;;;;;;;;;;4333949;33;20206;-84
2021/09/10 00:59:36;;;;;;;34.20;23.58;;;;;;;;;;4333861;33;20158;-84
2021/09/10 01:02:06;;;;;;;33.33;23.23;;;;;;;;;;4334233;33;20581;-84
2021/09/10 01:04:35;;;;;;;34.88;24.85;;;;;;;;;;4333479;33;20147;-84
2021/09/10 01:07:48;;;;;;;34.80;25.90;;;;;;;;;;4346688;33;20269;-84
2021/09/10 01:09:55;;;;;;;32.17;23.52;;;;;;;;;;4332619;33;20222;-84
2021/09/10 01:12:25;;;;;;;36.92;27.02;;;;;;;;;;4346559;33;20273;-84
2021/09/10 01:14:58;;;;;;;35.33;24.50;;;;;;;;;;4346902;33;20124;-85
2021/09/10 01:17:24;;;;;;;37.60;26.98;;;;;;;;;;4333551;33;20160;-84
2021/09/10 01:19:49;;;;;;;40.30;28.80;;;;;;;;;;4333453;33;20190;-84
2021/09/10 01:22:15;;;;;;;39.92;28.50;;;;;;;;;;4333339;33;20213;-84
2021/09/10 01:25:21;;;;;;;36.50;28.17;;;;;;;;;;4346624;33;20155;-85
2021/09/10 01:27:57;;;;;;;45.42;32.00;;;;;;;;;;4345888;33;20213;-86
2021/09/10 01:30:23;;;;;;;38.17;28.85;;;;;;;;;;4333283;33;20163;-85
2021/09/10 01:32:49;;;;;;;37.88;28.10;;;;;;;;;;4346602;33;20159;-85
2021/09/10 01:35:23;;;;;;;43.60;30.23;;;;;;;;;;4333253;33;20182;-85
2021/09/10 01:37:49;;;;;;;43.25;30.83;;;;;;;;;;4332954;33;20151;-84
2021/09/10 01:40:15;;;;;;;41.72;32.03;;;;;;;;;;4345854;33;20131;-85
2021/09/10 01:42:46;;;;;;;50.22;34.03;;;;;;;;;;4332560;33;20151;-84
2021/09/10 01:45:20;;;;;;;47.60;33.75;;;;;;;;;;4333466;33;20163;-85
2021/09/10 01:47:46;;;;;;;49.38;34.40;;;;;;;;;;4333295;33;20194;-85
2021/09/10 01:50:25;;;;;;;45.10;33.42;;;;;;;;;;4346253;33;20221;-85
2021/09/10 01:52:51;;;;;;;44.92;32.78;;;;;;;;;;4333345;33;20170;-85
2021/09/10 01:55:24;;;;;;;47.40;33.10;;;;;;;;;;4346270;33;20520;-85
2021/09/10 01:57:55;;;;;;;44.38;31.42;;;;;;;;;;4333003;33;20178;-85
2021/09/10 02:00:29;;;;;;;47.17;33.35;;;;;;;;;;4346665;33;20139;-85
2021/09/10 02:03:00;;;;;;;47.42;31.48;;;;;;;;;;4346481;33;20123;-85
2021/09/10 02:05:46;;;;;;;50.15;33.90;;;;;;;;;;4333175;33;20187;-85
2021/09/10 02:11:07;;;;;;;44.95;31.83;;;;;;;;;;4323155;33;20170;-84
2021/09/10 02:13:36;;;;;;;46.83;33.30;;;;;;;;;;4346393;33;20162;-85
2021/09/10 02:16:11;;;;;;;44.33;30.98;;;;;;;;;;4332939;33;20156;-84
2021/09/10 02:18:42;;;;;;;45.95;29.77;;;;;;;;;;4341139;33;20227;-85
2021/09/10 02:21:07;;;;;;;49.13;33.88;;;;;;;;;;4350227;33;20197;-85
2021/09/10 02:23:35;;;;;;;47.42;30.77;;;;;;;;;;4362595;33;20193;-85
2021/09/10 02:26:08;;;;;;;46.55;31.02;;;;;;;;;;4362979;33;20176;-85
2021/09/10 02:28:36;;;;;;;45.10;30.50;;;;;;;;;;4362212;33;20143;-85
2021/09/10 02:31:07;;;;;;;43.35;29.15;;;;;;;;;;4361315;33;20147;-84
2021/09/10 02:33:33;;;;;;;41.78;29.08;;;;;;;;;;4362642;33;20225;-85
2021/09/10 02:36:10;;;;;;;39.13;29.48;;;;;;;;;;4356358;33;20183;-85
2021/09/10 02:38:35;;;;;;;43.70;30.45;;;;;;;;;;4356555;33;20567;-84
2021/09/10 02:43:56;;;;;;;42.17;29.10;;;;;;;;;;4346884;33;20143;-85
2021/09/10 02:46:21;;;;;;;44.80;30.15;;;;;;;;;;4347371;33;20159;-84
2021/09/10 02:48:50;;;;;;;40.22;28.27;;;;;;;;;;4333194;33;20159;-84
2021/09/10 02:51:17;;;;;;;38.15;25.42;;;;;;;;;;4345907;33;20138;-84
2021/09/10 02:53:52;;;;;;;40.78;26.05;;;;;;;;;;4345992;33;20135;-85
2021/09/10 02:56:22;;;;;;;38.90;27.52;;;;;;;;;;4346289;33;20210;-84
2021/09/10 02:58:50;;;;;;;39.45;27.67;;;;;;;;;;4345908;33;20177;-84
2021/09/10 03:01:19;;;;;;;42.15;25.48;;;;;;;;;;4346353;33;20162;-84
2021/09/10 03:03:49;;;;;;;43.08;24.55;;;;;;;;;;4333035;33;20156;-84
2021/09/10 03:06:16;;;;;;;42.25;27.30;;;;;;;;;;4333001;33;20148;-84
2021/09/10 03:08:42;;;;;;;44.42;28.73;;;;;;;;;;4346226;33;20158;-84
2021/09/10 03:11:13;;;;;;;45.63;29.12;;;;;;;;;;4332969;33;20158;-85
2021/09/10 03:13:41;;;;;;;37.65;26.00;;;;;;;;;;4346299;33;20159;-86
2021/09/10 03:16:06;;;;;;;39.22;25.35;;;;;;;;;;4333566;33;20182;-86
2021/09/10 03:18:31;;;;;;;42.75;28.55;;;;;;;;;;4346911;33;20124;-85
2021/09/10 03:20:59;;;;;;;41.03;26.37;;;;;;;;;;4346433;33;20131;-85
2021/09/10 03:23:26;;;;;;;37.30;24.27;;;;;;;;;;4346193;33;20182;-85
2021/09/10 03:25:51;;;;;;;43.22;25.42;;;;;;;;;;4346045;33;20128;-84
2021/09/10 03:28:17;;;;;;;39.38;27.83;;;;;;;;;;4345926;33;20136;-85
2021/09/10 03:30:45;;;;;;;40.05;28.67;;;;;;;;;;4332329;33;20175;-85
2021/09/10 03:33:10;;;;;;;42.80;27.62;;;;;;;;;;4344989;33;20230;-84
2021/09/10 03:35:36;;;;;;;43.50;29.73;;;;;;;;;;4345707;33;20124;-84
2021/09/10 03:38:01;;;;;;;43.78;28.27;;;;;;;;;;4345696;33;20136;-84
2021/09/10 03:40:31;;;;;;;45.30;28.42;;;;;;;;;;4345528;33;20162;-85
2021/09/10 03:42:56;;;;;;;46.65;30.25;;;;;;;;;;4344952;33;20230;-84
2021/09/10 03:45:21;;;;;;;39.72;26.58;;;;;;;;;;4345507;33;20128;-85
2021/09/10 03:47:46;;;;;;;38.33;26.03;;;;;;;;;;4331932;33;20163;-85
2021/09/10 03:50:12;;;;;;;33.88;24.00;;;;;;;;;;4345019;33;20256;-85
2021/09/10 03:52:37;;;;;;;44.03;27.83;;;;;;;;;;4345184;33;20143;-85
2021/09/10 03:55:03;;;;;;;40.15;24.83;;;;;;;;;;4344982;33;20178;-85
2021/09/10 03:57:33;;;;;;;37.13;25.50;;;;;;;;;;4331349;33;20559;-85
2021/09/10 04:00:00;;;;;;;37.20;24.30;;;;;;;;;;4345504;33;20151;-85
2021/09/10 04:02:28;;;;;;;39.85;26.17;;;;;;;;;;4345648;33;20220;-85
2021/09/10 04:04:57;;;;;;;36.80;24.75;;;;;;;;;;4347277;33;20461;-86
2021/09/10 04:07:22;;;;;;;37.85;23.90;;;;;;;;;;4347922;33;20135;-84
2021/09/10 04:09:47;;;;;;;35.13;23.00;;;;;;;;;;4348225;33;20189;-85
2021/09/10 04:12:13;;;;;;;34.83;24.52;;;;;;;;;;4335016;33;20152;-85
2021/09/10 04:14:38;;;;;;;36.05;23.15;;;;;;;;;;4350172;33;20198;-86
2021/09/10 04:17:03;;;;;;;35.67;22.85;;;;;;;;;;4352195;33;20154;-85
2021/09/10 04:19:29;;;;;;;32.00;22.33;;;;;;;;;;4339363;33;20151;-87
2021/09/10 04:21:57;;;;;;;31.25;21.77;;;;;;;;;;4340309;33;20148;-87
2021/09/10 04:24:24;;;;;;;34.47;21.83;;;;;;;;;;4339387;33;20254;-87
2021/09/10 04:26:49;;;;;;;29.73;20.33;;;;;;;;;;4349131;33;20468;-84
2021/09/10 04:29:14;;;;;;;31.00;19.43;;;;;;;;;;4347863;33;20214;-85
2021/09/10 04:31:40;;;;;;;31.67;21.83;;;;;;;;;;4333882;33;20255;-86
2021/09/10 04:34:05;;;;;;;37.53;24.33;;;;;;;;;;4333799;33;20237;-85
2021/09/10 04:36:33;;;;;;;36.03;23.30;;;;;;;;;;4334095;33;20242;-85
2021/09/10 04:38:58;;;;;;;31.45;21.55;;;;;;;;;;4347813;33;20132;-85
2021/09/10 04:41:24;;;;;;;35.78;22.48;;;;;;;;;;4346963;33;20205;-86
2021/09/10 04:43:49;;;;;;;33.70;21.55;;;;;;;;;;4347530;33;20128;-86
2021/09/10 04:46:14;;;;;;;37.85;23.40;;;;;;;;;;4347621;33;20530;-84
2021/09/10 04:48:42;;;;;;;35.38;22.77;;;;;;;;;;4346964;33;20573;-85
2021/09/10 04:51:08;;;;;;;35.90;23.83;;;;;;;;;;4347271;33;20128;-84
2021/09/10 04:53:36;;;;;;;40.00;23.73;;;;;;;;;;4347173;33;20194;-84
2021/09/10 04:56:01;;;;;;;33.75;23.00;;;;;;;;;;4346958;33;20190;-86
2021/09/10 04:58:26;;;;;;;31.20;22.75;;;;;;;;;;4346983;33;20131;-85
2021/09/10 05:00:52;;;;;;;34.78;23.08;;;;;;;;;;4346516;33;20179;-85
2021/09/10 05:03:17;;;;;;;40.38;25.73;;;;;;;;;;4346898;33;20227;-84
2021/09/10 05:05:46;;;;;;;40.20;23.30;;;;;;;;;;4333269;33;20585;-84
2021/09/10 05:08:23;;;;;;;44.80;24.65;;;;;;;;;;4346730;33;20206;-85
2021/09/10 05:10:49;;;;;;;36.33;24.40;;;;;;;;;;4333188;33;20183;-85
2021/09/10 05:13:14;;;;;;;43.22;23.58;;;;;;;;;;4347330;33;20139;-86
2021/09/10 05:15:40;;;;;;;45.75;24.27;;;;;;;;;;4346820;33;20438;-84
2021/09/10 05:18:05;;;;;;;43.03;23.35;;;;;;;;;;4346589;33;20175;-82
2021/09/10 05:20:30;;;;;;;37.95;23.77;;;;;;;;;;4346461;33;20186;-83
2021/09/10 05:22:56;;;;;;;41.90;26.27;;;;;;;;;;4346767;33;20167;-82
2021/09/10 05:25:23;;;;;;;37.50;23.50;;;;;;;;;;4347267;33;20600;-83
2021/09/10 05:27:49;;;;;;;35.75;23.62;;;;;;;;;;4346311;33;20127;-83
2021/09/10 05:30:14;;;;;;;42.17;24.85;;;;;;;;;;4346591;33;20461;-82
2021/09/10 05:32:39;;;;;;;39.97;23.05;;;;;;;;;;4346413;33;20155;-83
2021/09/10 05:35:05;;;;;;;36.75;25.35;;;;;;;;;;4346831;33;20612;-83
2021/09/10 05:37:30;;;;;;;36.33;24.02;;;;;;;;;;4347498;33;20123;-83
2021/09/10 05:39:55;;;;;;;33.83;22.70;;;;;;;;;;4346675;33;20569;-84
2021/09/10 05:42:20;;;;;;;35.30;25.08;;;;;;;;;;4346545;33;20240;-83
2021/09/10 05:44:46;;;;;;;36.35;22.62;;;;;;;;;;4346694;33;20127;-84
2021/09/10 05:47:11;;;;;;;33.20;22.50;;;;;;;;;;4347513;33;20128;-83
2021/09/10 05:49:36;;;;;;;33.83;23.05;;;;;;;;;;4332495;33;20164;-85
2021/09/10 05:52:01;;;;;;;34.25;23.10;;;;;;;;;;4346133;33;20151;-83
2021/09/10 05:54:27;;;;;;;40.25;23.42;;;;;;;;;;4332538;33;20569;-82
2021/09/10 05:56:52;;;;;;;37.27;23.80;;;;;;;;;;4346115;33;20158;-84
2021/09/10 05:59:17;;;;;;;37.08;22.50;;;;;;;;;;4345951;33;20232;-84
2021/09/10 06:01:42;;;;;;;31.70;22.13;;;;;;;;;;4345861;33;20620;-83
2021/09/10 06:04:08;;;;;;;35.90;23.60;;;;;;;;;;4346306;33;20530;-83
2021/09/10 06:06:33;;;;;;;37.80;25.12;;;;;;;;;;4346286;33;20198;-83
2021/09/10 06:08:58;;;;;;;35.05;22.75;;;;;;;;;;4346406;33;20516;-82
2021/09/10 06:11:23;;;;;;;30.65;21.23;;;;;;;;;;4346132;33;20154;-83
2021/09/10 06:13:49;;;;;;;32.65;21.67;;;;;;;;;;4332421;33;20233;-83
2021/09/10 06:16:14;;;;;;;34.17;21.35;;;;;;;;;;4346439;33;20143;-82
2021/09/10 06:18:39;;;;;;;30.90;20.95;;;;;;;;;;4345694;33;20144;-83
2021/09/10 06:21:04;;;;;;;31.30;21.58;;;;;;;;;;4346366;33;20147;-82
2021/09/10 06:23:30;;;;;;;28.98;20.25;;;;;;;;;;4333636;33;20156;-83
2021/09/10 06:25:55;;;;;;;29.87;19.70;;;;;;;;;;4334757;33;20209;-81
2021/09/10 06:28:20;;;;;;;28.80;21.12;;;;;;;;;;4345523;33;20407;-82
2021/09/10 06:30:48;;;;;;;26.35;18.15;;;;;;;;;;4332092;33;20245;-83
2021/09/10 06:33:14;;;;;;;26.25;18.87;;;;;;;;;;4331912;33;20735;-83
2021/09/10 06:35:39;;;;;;;26.60;18.05;;;;;;;;;;4345985;33;20131;-84
2021/09/10 06:38:04;;;;;;;24.75;17.40;;;;;;;;;;4331848;33;20213;-82
2021/09/10 06:40:30;;;;;;;28.83;18.42;;;;;;;;;;4331665;33;20241;-83
2021/09/10 06:42:55;;;;;;;26.58;18.15;;;;;;;;;;4346032;33;20170;-83
2021/09/10 06:45:22;;;;;;;27.55;18.90;;;;;;;;;;4345443;33;20123;-82
2021/09/10 06:47:47;;;;;;;29.75;18.40;;;;;;;;;;4345352;33;20135;-79
2021/09/10 06:50:18;;;;;;;29.33;19.55;;;;;;;;;;4345235;33;20178;-83
2021/09/10 06:52:44;;;;;;;25.12;16.85;;;;;;;;;;4345899;33;20124;-83
2021/09/10 06:55:10;;;;;;;25.62;16.92;;;;;;;;;;4345314;33;20154;-82
2021/09/10 06:57:35;;;;;;;23.85;16.27;;;;;;;;;;4345702;33;20162;-82
2021/09/10 07:00:01;;;;;;;23.98;16.60;;;;;;;;;;4345702;33;20128;-83
2021/09/10 07:02:26;;;;;;;22.98;15.00;;;;;;;;;;4345742;33;20229;-83
2021/09/10 07:04:52;;;;;;;24.60;16.45;;;;;;;;;;4345770;33;20127;-82
2021/09/10 07:07:17;;;;;;;24.27;16.92;;;;;;;;;;4345495;33;20206;-83
2021/09/10 07:09:42;;;;;;;25.52;15.38;;;;;;;;;;4345669;33;20158;-83
2021/09/10 07:12:08;;;;;;;22.35;15.48;;;;;;;;;;4348992;33;20247;-84
2021/09/10 07:14:33;;;;;;;22.58;15.20;;;;;;;;;;4348926;33;20127;-84
2021/09/10 07:17:02;;;;;;;22.80;16.95;;;;;;;;;;4347419;33;20147;-82
2021/09/10 07:19:27;;;;;;;21.30;14.77;;;;;;;;;;4349028;33;20140;-83
2021/09/10 07:21:53;;;;;;;20.77;13.68;;;;;;;;;;4346998;33;20161;-82
2021/09/10 07:24:19;;;;;;;22.33;15.32;;;;;;;;;;4345379;33;20541;-82
2021/09/10 07:26:44;;;;;;;19.17;13.68;;;;;;;;;;4345062;33;20484;-82
2021/09/10 07:29:10;;;;;;;19.73;14.75;;;;;;;;;;4345683;33;20140;-82
2021/09/10 07:31:35;;;;;;;24.35;14.52;;;;;;;;;;4345241;33;20528;-83
2021/09/10 07:34:00;;;;;;;17.90;12.65;;;;;;;;;;4345395;33;20563;-83
2021/09/10 07:36:25;;;;;;;18.55;13.07;;;;;;;;;;4345109;33;20181;-83
2021/09/10 07:38:51;;;;;;;19.98;13.80;;;;;;;;;;4345983;33;20458;-83
2021/09/10 07:41:16;;;;;;;19.37;13.75;;;;;;;;;;4347989;33;20127;-84
2021/09/10 07:43:42;;;;;;;19.90;13.35;;;;;;;;;;4348528;33;20560;-83
2021/09/10 07:46:07;;;;;;;17.77;12.23;;;;;;;;;;4348000;33;20513;-83
2021/09/10 07:48:33;;;;;;;18.37;12.52;;;;;;;;;;4348120;33;20152;-82
2021/09/10 07:51:01;;;;;;;18.30;12.37;;;;;;;;;;4348212;33;20123;-82
2021/09/10 07:53:26;;;;;;;19.92;13.85;;;;;;;;;;4347244;33;20178;-82
2021/09/10 07:55:52;;;;;;;20.65;12.98;;;;;;;;;;4347408;33;20194;-82
2021/09/10 07:58:17;;;;;;;19.92;12.50;;;;;;;;;;4348495;33;20612;-82
2021/09/10 08:00:42;;;;;;;16.60;11.37;;;;;;;;;;4347969;33;20128;-81
2021/09/10 08:03:08;;;;;;;18.33;11.70;;;;;;;;;;4347670;33;20228;-82
2021/09/10 08:05:33;;;;;;;18.35;12.10;;;;;;;;;;4334626;33;20186;-83
2021/09/10 08:07:58;;;;;;;14.63;10.57;;;;;;;;;;4347744;33;20124;-80
2021/09/10 08:10:23;;;;;;;15.02;11.02;;;;;;;;;;4347259;33;20484;-82
2021/09/10 08:12:51;;;;;;;16.70;10.27;;;;;;;;;;4334672;33;20510;-83
2021/09/10 08:15:17;;;;;;;15.48;10.60;;;;;;;;;;4347437;33;20221;-82
2021/09/10 08:17:43;;;;;;;12.25;9.05;;;;;;;;;;4347641;33;20124;-83
2021/09/10 08:20:09;;;;;;;13.10;9.18;;;;;;;;;;4348047;33;20175;-82
2021/09/10 08:22:35;;;;;;;12.75;9.45;;;;;;;;;;4347695;33;20143;-83
2021/09/10 08:25:01;;;;;;;17.60;8.95;;;;;;;;;;4347188;33;20190;-82
2021/09/10 08:27:26;;;;;;;12.07;7.95;;;;;;;;;;4347158;33;20167;-82
2021/09/10 08:29:52;;;;;;;12.02;7.97;;;;;;;;;;4347255;33;20132;-84
2021/09/10 08:32:17;;;;;;;10.30;7.07;;;;;;;;;;4347242;33;20177;-82
2021/09/10 08:34:43;;;;;;;11.30;7.63;;;;;;;;;;4347089;33;20154;-83
2021/09/10 08:37:08;;;;;;;10.48;7.85;;;;;;;;;;4347498;33;20251;-82
2021/09/10 08:39:35;;;;;;;11.80;6.45;;;;;;;;;;4347150;33;20537;-82
2021/09/10 08:42:01;;;;;;;9.73;6.37;;;;;;;;;;4347345;33;20127;-82
2021/09/10 08:44:27;;;;;;;11.48;6.28;;;;;;;;;;4346814;33;20241;-81
2021/09/10 08:46:52;;;;;;;12.13;6.50;;;;;;;;;;4347040;33;20140;-83
2021/09/10 08:49:17;;;;;;;10.48;5.57;;;;;;;;;;4346967;33;20516;-84
2021/09/10 08:51:43;;;;;;;11.38;5.57;;;;;;;;;;4346971;33;20126;-78
2021/09/10 08:54:08;;;;;;;8.82;6.07;;;;;;;;;;4333326;33;20183;-82
2021/09/10 08:56:33;;;;;;;9.38;5.82;;;;;;;;;;4346995;33;20154;-81
2021/09/10 08:59:06;;;;;;;8.97;5.50;;;;;;;;;;4333328;33;20222;-82
2021/09/10 09:01:31;;;;;;;11.90;6.68;;;;;;;;;;4333960;33;20696;-82
2021/09/10 09:04:05;;;;;;;13.20;6.60;;;;;;;;;;4346798;33;20136;-82
2021/09/10 09:06:34;;;;;;;9.02;6.78;;;;;;;;;;4346629;33;20126;-82
2021/09/10 09:09:00;;;;;;;11.20;6.62;;;;;;;;;;4346793;33;20186;-82
2021/09/10 09:11:25;;;;;;;8.43;6.62;;;;;;;;;;4333118;33;20163;-82
2021/09/10 09:13:53;;;;;;;12.52;7.47;;;;;;;;;;4346681;33;20158;-83
2021/09/10 09:16:23;;;;;;;11.77;6.82;;;;;;;;;;4333477;33;20186;-83
2021/09/10 09:18:52;;;;;;;10.25;6.50;;;;;;;;;;4346691;33;20168;-82
2021/09/10 09:21:36;;;;;;;11.40;7.07;;;;;;;;;;4333025;33;20178;-82
2021/09/10 09:24:13;;;;;;;10.23;6.82;;;;;;;;;;4333129;33;20278;-84
2021/09/10 09:26:39;;;;;;;11.98;7.75;;;;;;;;;;4346740;33;20153;-82
2021/09/10 09:29:08;;;;;;;15.85;8.50;;;;;;;;;;4346313;33;20128;-82
2021/09/10 09:31:34;;;;;;;11.45;8.48;;;;;;;;;;4347324;33;20174;-82
2021/09/10 09:33:59;;;;;;;15.98;8.98;;;;;;;;;;4346754;33;20564;-81
2021/09/10 09:36:25;;;;;;;16.20;9.50;;;;;;;;;;4346720;33;20152;-80
2021/09/10 09:38:50;;;;;;;11.80;9.30;;;;;;;;;;4346272;33;20132;-82
2021/09/10 09:41:17;;;;;;;12.80;9.70;;;;;;;;;;4345973;33;20585;-81
2021/09/10 09:43:44;;;;;;;16.55;9.88;;;;;;;;;;4332641;33;20593;-81
2021/09/10 09:46:14;;;;;;;10.82;8.98;;;;;;;;;;4332579;33;20151;-81
2021/09/10 09:48:40;;;;;;;15.50;10.48;;;;;;;;;;4346151;33;20182;-83
2021/09/10 09:51:06;;;;;;;15.40;10.27;;;;;;;;;;4345939;33;20139;-83
2021/09/10 09:53:32;;;;;;;13.05;10.02;;;;;;;;;;4332361;33;20198;-80
2021/09/10 09:55:59;;;;;;;14.82;10.70;;;;;;;;;;4346203;33;20148;-76
2021/09/10 09:58:25;;;;;;;13.73;10.05;;;;;;;;;;4345809;33;20195;-82
2021/09/10 10:00:53;;;;;;;15.32;11.43;;;;;;;;;;4346012;33;20123;-83
2021/09/10 10:03:19;;;;;;;12.93;10.88;;;;;;;;;;4344964;33;20493;-82
2021/09/10 10:05:44;;;;;;;15.75;12.40;;;;;;;;;;4346262;33;20128;-81
2021/09/10 10:08:11;;;;;;;16.40;11.57;;;;;;;;;;4346278;33;20170;-82
2021/09/10 10:10:41;;;;;;;14.27;12.70;;;;;;;;;;4346043;33;20217;-81
2021/09/10 10:13:07;;;;;;;16.90;12.88;;;;;;;;;;4346289;33;20167;-81
2021/09/10 10:15:32;;;;;;;14.02;12.40;;;;;;;;;;4346449;33;20139;-83
2021/09/10 10:17:58;;;;;;;16.05;11.88;;;;;;;;;;4346039;33;20267;-81
2021/09/10 10:20:42;;;;;;;17.85;13.18;;;;;;;;;;4346177;33;20136;-80
2021/09/10 10:23:26;;;;;;;16.73;13.55;;;;;;;;;;4346640;33;20130;-81
2021/09/10 10:26:04;;;;;;;18.15;13.45;;;;;;;;;;4332394;33;20251;-82
2021/09/10 10:28:40;;;;;;;16.70;13.65;;;;;;;;;;4345774;33;20262;-82
2021/09/10 10:31:06;;;;;;;18.25;14.73;;;;;;;;;;4346302;33;20131;-80
2021/09/10 10:33:31;;;;;;;18.23;14.65;;;;;;;;;;4332065;33;20224;-83
2021/09/10 10:35:57;;;;;;;20.12;15.93;;;;;;;;;;4345450;33;20457;-83
2021/09/10 10:38:22;;;;;;;20.67;17.23;;;;;;;;;;4345416;33;20178;-82
2021/09/10 10:40:48;;;;;;;21.55;15.90;;;;;;;;;;4345517;33;20132;-80
2021/09/10 10:43:24;;;;;;;19.50;16.60;;;;;;;;;;4345662;33;20165;-80
2021/09/10 10:45:49;;;;;;;23.42;17.48;;;;;;;;;;4345659;33;20158;-81
2021/09/10 10:48:29;;;;;;;24.05;16.80;;;;;;;;;;4345192;33;20140;-80
2021/09/10 10:51:13;;;;;;;21.35;17.23;;;;;;;;;;4345922;33;20576;-82
2021/09/10 10:53:47;;;;;;;19.52;16.00;;;;;;;;;;4344841;33;20177;-80
2021/09/10 10:56:21;;;;;;;26.08;16.75;;;;;;;;;;4346056;33;20155;-82
2021/09/10 10:59:07;;;;;;;22.15;16.70;;;;;;;;;;4345196;33;20242;-81
2021/09/10 11:01:52;;;;;;;25.95;17.25;;;;;;;;;;4345035;33;20238;-81
2021/09/10 11:04:24;;;;;;;21.50;15.50;;;;;;;;;;4345410;33;20541;-82
2021/09/10 11:06:53;;;;;;;20.05;15.55;;;;;;;;;;4331779;33;20229;-82
2021/09/10 11:09:18;;;;;;;23.90;17.48;;;;;;;;;;4331104;33;20336;-83
2021/09/10 11:11:43;;;;;;;20.43;15.27;;;;;;;;;;4331624;33;20171;-83
2021/09/10 11:14:09;;;;;;;18.58;14.18;;;;;;;;;;4347444;33;20597;-81
2021/09/10 11:16:34;;;;;;;15.40;12.70;;;;;;;;;;4348322;33;20576;-83
2021/09/10 11:18:59;;;;;;;17.48;14.32;;;;;;;;;;4348728;33;20147;-82
2021/09/10 11:21:26;;;;;;;16.58;14.80;;;;;;;;;;4348682;33;20132;-82
2021/09/10 11:23:52;;;;;;;15.07;11.32;;;;;;;;;;4348404;33;20142;-82
2021/09/10 11:26:17;;;;;;;15.73;11.88;;;;;;;;;;4348412;33;20140;-81
2021/09/10 11:28:42;;;;;;;15.18;12.88;;;;;;;;;;4348415;33;20207;-83
2021/09/10 11:31:07;;;;;;;12.77;11.45;;;;;;;;;;4334579;33;20183;-83
2021/09/10 11:33:43;;;;;;;15.13;11.05;;;;;;;;;;4348311;33;20246;-81
2021/09/10 11:36:08;;;;;;;13.68;11.27;;;;;;;;;;4348260;33;20131;-81
2021/09/10 11:38:34;;;;;;;13.05;10.68;;;;;;;;;;4334306;33;20254;-82
2021/09/10 11:41:00;;;;;;;14.52;10.95;;;;;;;;;;4348046;33;20147;-82
2021/09/10 11:43:31;;;;;;;12.13;10.18;;;;;;;;;;4348050;33;20123;-83
2021/09/10 11:45:58;;;;;;;11.25;8.20;;;;;;;;;;4347885;33;20159;-82
2021/09/10 11:48:25;;;;;;;10.75;7.50;;;;;;;;;;4347184;33;20155;-82
2021/09/10 11:50:56;;;;;;;7.95;6.15;;;;;;;;;;4348296;33;20182;-82
2021/09/10 11:53:28;;;;;;;9.60;6.60;;;;;;;;;;4347705;33;20147;-78
2021/09/10 11:55:55;;;;;;;9.60;6.78;;;;;;;;;;4347597;33;20128;-82
2021/09/10 11:58:32;;;;;;;8.20;5.78;;;;;;;;;;4347884;33;20218;-83
2021/09/10 12:01:24;;;;;;;8.40;5.20;;;;;;;;;;4347807;33;20552;-81
2021/09/10 12:03:57;;;;;;;8.52;5.43;;;;;;;;;;4344261;33;20171;-81
2021/09/10 12:06:24;;;;;;;13.32;5.65;;;;;;;;;;4333803;33;20209;-82
2021/09/10 12:09:11;;;;;;;10.25;5.00;;;;;;;;;;4348618;33;20135;-81
2021/09/10 12:11:37;;;;;;;9.60;5.05;;;;;;;;;;4348397;33;20186;-81
2021/09/10 12:14:12;;;;;;;9.10;5.70;;;;;;;;;;4347141;33;20197;-81
2021/09/10 12:16:37;;;;;;;7.80;5.60;;;;;;;;;;4333991;33;20497;-81
2021/09/10 12:19:03;;;;;;;10.52;5.60;;;;;;;;;;4347671;33;20202;-79
2021/09/10 12:21:29;;;;;;;8.43;6.43;;;;;;;;;;4347198;33;20157;-81
2021/09/10 12:24:07;;;;;;;7.97;6.43;;;;;;;;;;4347013;33;20150;-81
2021/09/10 12:26:49;;;;;;;8.10;6.53;;;;;;;;;;4346911;33;20533;-82
2021/09/10 12:29:23;;;;;;;8.45;6.50;;;;;;;;;;4346954;33;20151;-82
2021/09/10 12:31:51;;;;;;;9.68;7.32;;;;;;;;;;4347625;33;20434;-79
2021/09/10 12:34:16;;;;;;;10.00;6.60;;;;;;;;;;4333506;33;20540;-81
2021/09/10 12:36:44;;;;;;;8.43;7.10;;;;;;;;;;4347701;33;20182;-80
2021/09/10 12:39:09;;;;;;;9.18;8.07;;;;;;;;;;4333389;33;20151;-82
2021/09/10 12:41:35;;;;;;;12.23;8.20;;;;;;;;;;4333520;33;20234;-81
2021/09/10 12:44:02;;;;;;;12.43;9.55;;;;;;;;;;4346817;33;20594;-83
2021/09/10 12:46:27;;;;;;;11.30;8.95;;;;;;;;;;4347149;33;20182;-81
2021/09/10 12:48:52;;;;;;;10.90;8.38;;;;;;;;;;4346637;33;20178;-82
2021/09/10 12:51:18;;;;;;;11.75;8.63;;;;;;;;;;4333798;33;20156;-81
2021/09/10 12:53:43;;;;;;;9.30;8.15;;;;;;;;;;4346675;33;20193;-82
2021/09/10 12:56:08;;;;;;;9.80;7.72;;;;;;;;;;4333780;33;20155;-82
2021/09/10 12:58:35;;;;;;;12.52;8.57;;;;;;;;;;4332977;33;20156;-81
2021/09/10 13:01:00;;;;;;;10.00;8.23;;;;;;;;;;4333585;33;20205;-83
2021/09/10 13:03:28;;;;;;;11.80;8.60;;;;;;;;;;4333520;33;20601;-81
2021/09/10 13:05:53;;;;;;;11.85;9.07;;;;;;;;;;4347488;33;20190;-81
2021/09/10 13:08:19;;;;;;;11.95;9.00;;;;;;;;;;4346772;33;20198;-82
2021/09/10 13:10:48;;;;;;;12.27;8.73;;;;;;;;;;4347533;33;20132;-82
2021/09/10 13:13:13;;;;;;;10.77;9.45;;;;;;;;;;4346827;33;20170;-83
2021/09/10 13:15:39;;;;;;;9.55;8.55;;;;;;;;;;4347086;33;20131;-82
2021/09/10 13:18:04;;;;;;;12.88;9.07;;;;;;;;;;4347432;33;20202;-80
2021/09/10 13:20:30;;;;;;;13.45;10.20;;;;;;;;;;4357316;33;20132;-83
2021/09/10 13:22:55;;;;;;;11.82;10.05;;;;;;;;;;4354074;33;20238;-83
2021/09/10 13:25:21;;;;;;;10.73;9.63;;;;;;;;;;4353953;33;20132;-83
2021/09/10 13:27:46;;;;;;;14.30;10.68;;;;;;;;;;4344134;33;20648;-85
2021/09/10 13:30:14;;;;;;;10.65;8.57;;;;;;;;;;4354564;33;20135;-83
2021/09/10 13:32:39;;;;;;;15.98;10.73;;;;;;;;;;4354306;33;20213;-81
2021/09/10 13:35:05;;;;;;;11.10;9.57;;;;;;;;;;4353852;33;20151;-81
2021/09/10 13:37:33;;;;;;;12.98;10.63;;;;;;;;;;4338287;33;20199;-82
2021/09/10 13:39:58;;;;;;;13.77;10.73;;;;;;;;;;4348822;33;20214;-83
2021/09/10 13:42:25;;;;;;;11.52;9.48;;;;;;;;;;4346923;33;20131;-82
2021/09/10 13:44:50;;;;;;;12.93;10.07;;;;;;;;;;4347737;33;20219;-81
2021/09/10 13:47:15;;;;;;;13.32;10.40;;;;;;;;;;4347615;33;20140;-83
2021/09/10 13:49:41;;;;;;;15.80;10.95;;;;;;;;;;4347557;33;20561;-80
2021/09/10 13:52:06;;;;;;;11.47;10.27;;;;;;;;;;4348079;33;20277;-82
2021/09/10 13:54:31;;;;;;;15.20;11.12;;;;;;;;;;4350852;33;20303;-81
2021/09/10 13:56:57;;;;;;;16.02;11.52;;;;;;;;;;4347105;33;20155;-81
2021/09/10 13:59:23;;;;;;;15.07;11.95;;;;;;;;;;4346899;33;20150;-81
2021/09/10 14:01:48;;;;;;;13.27;11.45;;;;;;;;;;4346822;33;20132;-82
2021/09/10 14:04:14;;;;;;;12.73;9.82;;;;;;;;;;4346727;33;20151;-81
2021/09/10 14:06:39;;;;;;;12.30;10.50;;;;;;;;;;4333072;33;20479;-83
2021/09/10 14:09:04;;;;;;;17.98;14.77;;;;;;;;;;4346311;33;20211;-83
2021/09/10 14:11:30;;;;;;;17.48;13.38;;;;;;;;;;4346110;33;20473;-84
2021/09/10 14:13:55;;;;;;;20.35;16.00;;;;;;;;;;4332340;33;20163;-82
2021/09/10 14:16:20;;;;;;;18.98;16.62;;;;;;;;;;4345702;33;20132;-81
2021/09/10 14:18:46;;;;;;;20.67;16.33;;;;;;;;;;4339791;33;20552;-82
2021/09/10 14:21:11;;;;;;;18.42;14.90;;;;;;;;;;4339859;33;20139;-82
2021/09/10 14:23:36;;;;;;;22.52;17.95;;;;;;;;;;4346094;33;20530;-84
2021/09/10 14:26:01;;;;;;;19.73;16.05;;;;;;;;;;4345778;33;20244;-80
2021/09/10 14:28:27;;;;;;;17.83;15.75;;;;;;;;;;4345979;33;20158;-83
2021/09/10 14:30:52;;;;;;;19.75;15.27;;;;;;;;;;4345693;33;20516;-82